createdAt,value
2018-07-25T00:00:13.261Z,50.30
2018-07-25T00:00:46.292Z,49.80
2018-07-25T00:01:19.317Z,49.70
2018-07-25T00:01:52.375Z,49.50
2018-07-25T00:02:25.411Z,49.20
2018-07-25T00:02:58.405Z,49.10
2018-07-25T00:03:31.719Z,49.20
2018-07-25T00:04:05.078Z,49.20
2018-07-25T00:04:38.102Z,49.60
2018-07-25T00:05:11.148Z,51.40
2018-07-25T00:05:44.201Z,52.70
2018-07-25T00:06:17.293Z,52.70
2018-07-25T00:06:50.389Z,52.40
2018-07-25T00:07:23.409Z,52.10
2018-07-25T00:07:56.454Z,51.60
2018-07-25T00:08:29.541Z,51.60
2018-07-25T00:09:02.860Z,51.10
2018-07-25T00:09:35.857Z,50.90
2018-07-25T00:10:09.683Z,51.20
2018-07-25T00:10:48.543Z,51.50
2018-07-25T00:11:21.547Z,51.50
2018-07-25T00:11:54.577Z,51.50
2018-07-25T00:12:27.595Z,52.00
2018-07-25T00:13:00.618Z,52.30
2018-07-25T00:13:33.613Z,52.60
2018-07-25T00:14:06.787Z,52.90
2018-07-25T00:14:39.807Z,53.40
2018-07-25T00:15:12.845Z,53.70
2018-07-25T00:15:45.833Z,54.00
2018-07-25T00:16:18.899Z,54.10
2018-07-25T00:16:51.997Z,54.20
2018-07-25T00:17:25.310Z,54.60
2018-07-25T00:17:58.311Z,55.00
2018-07-25T00:18:31.330Z,55.20
2018-07-25T00:19:04.457Z,55.30
2018-07-25T00:19:37.509Z,55.60
2018-07-25T00:20:10.559Z,55.60
2018-07-25T00:20:43.646Z,55.80
2018-07-25T00:21:16.651Z,56.10
2018-07-25T00:21:49.695Z,56.50
2018-07-25T00:22:22.701Z,56.70
2018-07-25T00:22:55.691Z,56.70
2018-07-25T00:23:28.687Z,57.20
2018-07-25T00:24:01.705Z,57.60
2018-07-25T00:24:36.065Z,57.80
2018-07-25T00:25:09.099Z,57.90
2018-07-25T00:25:42.147Z,57.80
2018-07-25T00:26:15.207Z,57.60
2018-07-25T00:26:48.225Z,57.60
2018-07-25T00:27:21.223Z,57.80
2018-07-25T00:27:54.245Z,58.30
2018-07-25T00:28:27.239Z,58.80
2018-07-25T00:29:00.252Z,59.60
2018-07-25T00:29:33.275Z,60.30
2018-07-25T00:30:06.391Z,60.60
2018-07-25T00:30:39.387Z,61.60
2018-07-25T00:31:12.435Z,61.30
2018-07-25T00:31:45.438Z,61.10
2018-07-25T00:32:18.419Z,61.10
2018-07-25T00:32:51.415Z,61.60
2018-07-25T00:33:24.417Z,62.10
2018-07-25T00:33:57.413Z,62.10
2018-07-25T00:34:30.413Z,62.90
2018-07-25T00:35:03.439Z,64.30
2018-07-25T00:35:36.569Z,64.20
2018-07-25T00:36:09.590Z,63.40
2018-07-25T00:36:42.584Z,63.00
2018-07-25T00:37:15.649Z,63.10
2018-07-25T00:37:48.651Z,62.60
2018-07-25T00:38:21.668Z,63.70
2018-07-25T00:38:54.681Z,64.70
2018-07-25T00:39:27.665Z,65.60
2018-07-25T00:40:00.645Z,66.20
2018-07-25T00:40:38.645Z,67.10
2018-07-25T00:41:11.651Z,68.10
2018-07-25T00:41:44.692Z,69.40
2018-07-25T00:42:17.715Z,69.30
2018-07-25T00:42:50.729Z,69.40
2018-07-25T00:43:23.737Z,68.90
2018-07-25T00:43:56.755Z,68.40
2018-07-25T00:44:29.939Z,68.10
2018-07-25T00:45:03.034Z,67.80
2018-07-25T00:45:36.088Z,67.10
2018-07-25T00:46:09.259Z,66.50
2018-07-25T00:46:42.273Z,66.30
2018-07-25T00:47:15.277Z,66.20
2018-07-25T00:47:48.312Z,65.90
2018-07-25T00:48:21.322Z,65.80
2018-07-25T00:48:54.337Z,66.20
2018-07-25T00:49:27.343Z,67.20
2018-07-25T00:50:00.335Z,67.50
2018-07-25T00:50:33.347Z,67.60
2018-07-25T00:51:06.374Z,67.70
2018-07-25T00:53:08.920Z,67.50
2018-07-25T00:53:41.887Z,67.70
2018-07-25T00:54:14.883Z,67.10
2018-07-25T00:54:47.975Z,66.90
2018-07-25T00:55:21.002Z,66.80
2018-07-25T00:55:54.018Z,66.60
2018-07-25T00:56:27.109Z,66.30
2018-07-25T00:57:00.127Z,65.80
2018-07-25T00:57:33.143Z,65.70
2018-07-25T00:58:06.192Z,66.40
2018-07-25T00:58:39.235Z,67.10
2018-07-25T00:59:12.296Z,67.60
2018-07-25T00:59:45.305Z,67.50
2018-07-25T01:00:18.395Z,67.90
2018-07-25T01:00:51.426Z,68.70
2018-07-25T01:01:24.510Z,68.50
2018-07-25T01:01:57.590Z,68.50
2018-07-25T01:02:30.636Z,69.10
2018-07-25T01:03:03.674Z,69.90
2018-07-25T01:03:36.698Z,70.40
2018-07-25T01:04:09.695Z,70.80
2018-07-25T01:04:42.741Z,71.00
2018-07-25T01:05:16.007Z,70.70
2018-07-25T01:05:49.063Z,70.40
2018-07-25T01:06:22.662Z,70.40
2018-07-25T01:06:55.744Z,70.10
2018-07-25T01:07:28.782Z,69.50
2018-07-25T01:08:01.827Z,69.00
2018-07-25T01:08:34.824Z,68.70
2018-07-25T01:09:09.593Z,68.20
2018-07-25T01:09:42.678Z,67.80
2018-07-25T01:10:15.726Z,67.50
2018-07-25T01:10:48.723Z,67.30
2018-07-25T01:11:21.760Z,67.00
2018-07-25T01:11:54.833Z,66.80
2018-07-25T01:12:27.878Z,66.40
2018-07-25T01:13:00.901Z,66.10
2018-07-25T01:13:33.959Z,66.10
2018-07-25T01:14:07.027Z,66.70
2018-07-25T01:14:40.008Z,67.20
2018-07-25T01:15:13.055Z,68.20
2018-07-25T01:15:46.085Z,68.80
2018-07-25T01:16:19.149Z,69.50
2018-07-25T01:16:52.187Z,69.70
2018-07-25T01:17:25.231Z,69.00
2018-07-25T01:17:58.227Z,70.20
2018-07-25T01:18:31.245Z,70.60
2018-07-25T01:19:04.325Z,71.30
2018-07-25T01:19:37.359Z,71.60
2018-07-25T01:20:10.371Z,72.00
2018-07-25T01:22:12.953Z,72.70
2018-07-25T01:22:45.963Z,72.80
2018-07-25T01:23:18.973Z,75.00
2018-07-25T01:23:51.967Z,74.30
2018-07-25T01:24:24.989Z,74.00
2018-07-25T01:24:58.053Z,74.60
2018-07-25T01:25:31.067Z,75.50
2018-07-25T01:26:04.076Z,75.00
2018-07-25T01:26:37.085Z,74.50
2018-07-25T01:27:10.308Z,73.80
2018-07-25T01:27:43.381Z,73.40
2018-07-25T01:28:16.395Z,73.20
2018-07-25T01:28:49.395Z,73.50
2018-07-25T01:29:22.439Z,72.70
2018-07-25T01:29:55.423Z,72.30
2018-07-25T01:30:28.437Z,72.00
2018-07-25T01:31:01.484Z,71.60
2018-07-25T01:31:34.486Z,71.40
2018-07-25T01:32:07.515Z,71.20
2018-07-25T01:32:40.538Z,70.80
2018-07-25T01:33:13.565Z,70.10
2018-07-25T01:33:46.588Z,69.80
2018-07-25T01:34:19.596Z,69.60
2018-07-25T01:34:52.649Z,69.30
2018-07-25T01:35:25.656Z,69.20
2018-07-25T01:35:58.687Z,69.00
2018-07-25T01:36:31.712Z,68.90
2018-07-25T01:37:04.741Z,68.90
2018-07-25T01:37:37.817Z,69.10
2018-07-25T01:38:10.819Z,69.10
2018-07-25T01:38:43.829Z,69.30
2018-07-25T01:39:16.823Z,71.50
2018-07-25T01:39:49.827Z,73.40
2018-07-25T01:40:22.929Z,74.60
2018-07-25T01:40:56.024Z,75.20
2018-07-25T01:41:29.018Z,76.50
2018-07-25T01:42:02.016Z,76.50
2018-07-25T01:42:35.039Z,76.40
2018-07-25T01:43:08.093Z,76.40
2018-07-25T01:43:41.059Z,76.10
2018-07-25T01:44:14.050Z,75.80
2018-07-25T01:44:47.295Z,75.60
2018-07-25T01:45:20.327Z,76.90
2018-07-25T01:45:53.318Z,78.20
2018-07-25T01:46:26.313Z,78.80
2018-07-25T01:46:59.331Z,79.10
2018-07-25T01:47:32.339Z,78.80
2018-07-25T01:48:05.399Z,78.40
2018-07-25T01:48:38.418Z,79.10
2018-07-25T01:49:11.433Z,81.00
2018-07-25T01:49:44.429Z,82.10
2018-07-25T01:50:17.489Z,82.80
2018-07-25T01:50:50.743Z,82.30
2018-07-25T01:51:23.777Z,83.10
2018-07-25T01:51:56.819Z,83.50
2018-07-25T01:52:29.806Z,84.40
2018-07-25T01:53:02.845Z,85.20
2018-07-25T01:53:35.850Z,85.70
2018-07-25T01:54:08.879Z,86.30
2018-07-25T01:54:41.885Z,86.60
2018-07-25T01:55:14.896Z,85.90
2018-07-25T01:55:47.897Z,85.90
2018-07-25T01:56:20.955Z,86.00
2018-07-25T01:56:53.991Z,85.60
2018-07-25T01:57:27.027Z,85.50
2018-07-25T01:58:00.068Z,85.40
2018-07-25T01:58:33.089Z,84.90
2018-07-25T01:59:06.141Z,84.10
2018-07-25T01:59:39.163Z,83.60
2018-07-25T02:00:12.145Z,83.40
2018-07-25T02:00:46.900Z,83.40
2018-07-25T02:01:19.888Z,83.60
2018-07-25T02:01:52.875Z,83.40
2018-07-25T02:02:25.893Z,83.40
2018-07-25T02:02:58.925Z,83.70
2018-07-25T02:03:31.954Z,83.90
2018-07-25T02:04:05.363Z,85.40
2018-07-25T02:04:38.338Z,85.70
2018-07-25T02:05:11.342Z,86.40
2018-07-25T02:05:44.405Z,86.80
2018-07-25T02:06:17.439Z,86.70
2018-07-25T02:06:50.463Z,86.40
2018-07-25T02:07:23.575Z,86.50
2018-07-25T02:07:56.569Z,86.30
2018-07-25T02:08:29.575Z,86.50
2018-07-25T02:09:02.928Z,86.80
2018-07-25T02:09:35.951Z,86.50
2018-07-25T02:10:09.076Z,86.30
2018-07-25T02:10:43.889Z,86.40
2018-07-25T02:11:16.923Z,86.50
2018-07-25T02:11:49.927Z,86.70
2018-07-25T02:12:23.013Z,86.40
2018-07-25T02:12:56.096Z,85.80
2018-07-25T02:13:29.133Z,85.40
2018-07-25T02:14:02.159Z,85.00
2018-07-25T02:14:35.171Z,84.80
2018-07-25T02:15:08.319Z,84.50
2018-07-25T02:15:41.364Z,84.40
2018-07-25T02:16:14.431Z,84.30
2018-07-25T02:16:47.461Z,84.40
2018-07-25T02:17:20.495Z,84.40
2018-07-25T02:17:53.731Z,84.40
2018-07-25T02:18:26.773Z,84.40
2018-07-25T02:18:59.847Z,84.40
2018-07-25T02:22:14.766Z,84.40
2018-07-25T02:22:47.765Z,85.00
2018-07-25T02:23:20.763Z,85.90
2018-07-25T02:23:53.795Z,87.60
2018-07-25T02:24:26.827Z,89.60
2018-07-25T02:24:59.905Z,89.70
2018-07-25T02:25:32.913Z,89.90
2018-07-25T02:26:05.923Z,90.60
2018-07-25T02:26:38.915Z,91.40
2018-07-25T02:27:11.939Z,91.90
2018-07-25T02:27:44.939Z,91.70
2018-07-25T02:28:17.939Z,91.40
2018-07-25T02:28:50.952Z,91.20
2018-07-25T02:29:23.988Z,90.90
2018-07-25T02:29:57.034Z,90.60
2018-07-25T02:30:30.047Z,90.60
2018-07-25T02:31:03.091Z,90.50
2018-07-25T02:31:36.095Z,90.30
2018-07-25T02:33:44.304Z,90.60
2018-07-25T02:34:19.849Z,91.20
2018-07-25T02:34:52.890Z,90.70
2018-07-25T02:35:25.912Z,90.10
2018-07-25T02:35:58.921Z,89.60
2018-07-25T02:36:31.985Z,89.40
2018-07-25T02:37:05.051Z,90.20
2018-07-25T02:37:38.061Z,92.50
2018-07-25T02:38:11.103Z,95.70
2018-07-25T02:38:44.157Z,97.40
2018-07-25T02:39:17.229Z,97.90
2018-07-25T02:39:50.275Z,98.40
2018-07-25T02:40:23.293Z,99.00
2018-07-25T02:40:56.361Z,98.60
2018-07-25T02:41:29.360Z,98.20
2018-07-25T02:42:02.374Z,97.90
2018-07-25T02:42:35.459Z,97.40
2018-07-25T02:43:08.438Z,96.80
2018-07-25T02:43:41.439Z,96.70
2018-07-25T02:44:14.595Z,96.70
2018-07-25T02:44:47.619Z,96.30
2018-07-25T02:45:20.649Z,95.80
2018-07-25T02:45:53.675Z,95.20
2018-07-25T02:46:26.703Z,94.70
2018-07-25T02:46:59.771Z,94.30
2018-07-25T02:47:32.778Z,93.70
2018-07-25T02:48:05.835Z,93.40
2018-07-25T02:48:38.876Z,93.30
2018-07-25T02:49:11.873Z,93.20
2018-07-25T02:49:44.883Z,92.90
2018-07-25T02:50:17.898Z,92.80
2018-07-25T02:50:50.868Z,92.70
2018-07-25T02:51:23.856Z,92.90
2018-07-25T02:51:56.845Z,93.20
2018-07-25T02:52:29.897Z,93.60
2018-07-25T02:53:02.963Z,93.70
2018-07-25T02:53:35.977Z,93.90
2018-07-25T02:54:09.034Z,94.10
2018-07-25T02:54:42.005Z,94.10
2018-07-25T02:55:15.073Z,94.30
2018-07-25T02:55:48.090Z,94.30
2018-07-25T02:56:21.093Z,94.20
2018-07-25T02:56:54.197Z,94.30
2018-07-25T02:57:27.231Z,94.40
2018-07-25T02:58:00.233Z,94.80
2018-07-25T02:58:33.247Z,95.20
2018-07-25T02:59:06.230Z,96.40
2018-07-25T02:59:39.201Z,98.40
2018-07-25T03:00:12.336Z,99.90
2018-07-25T03:00:45.371Z,99.90
2018-07-25T03:01:18.607Z,99.90
2018-07-25T03:01:51.627Z,99.90
2018-07-25T03:02:24.630Z,99.90
2018-07-25T03:02:57.707Z,99.90
2018-07-25T03:03:30.727Z,99.90
2018-07-25T03:04:03.743Z,99.90
2018-07-25T03:04:36.742Z,99.90
2018-07-25T03:05:09.790Z,99.90
2018-07-25T03:05:42.837Z,99.90
2018-07-25T03:06:16.018Z,99.90
2018-07-25T03:08:18.608Z,99.90
2018-07-25T03:08:51.616Z,99.30
2018-07-25T03:09:24.623Z,98.10
2018-07-25T03:09:57.667Z,97.90
2018-07-25T03:10:30.695Z,97.70
2018-07-25T03:11:03.717Z,97.60
2018-07-25T03:11:36.837Z,97.60
2018-07-25T03:12:09.827Z,97.50
2018-07-25T03:12:42.879Z,97.60
2018-07-25T03:13:15.941Z,97.60
2018-07-25T03:13:48.970Z,97.80
2018-07-25T03:14:22.302Z,97.80
2018-07-25T03:14:55.367Z,97.80
2018-07-25T03:15:28.386Z,97.80
2018-07-25T03:16:04.933Z,98.00
2018-07-25T03:16:37.985Z,98.00
2018-07-25T03:17:11.153Z,98.10
2018-07-25T03:17:44.297Z,98.20
2018-07-25T03:18:17.374Z,98.40
2018-07-25T03:18:50.341Z,98.50
2018-07-25T03:19:23.325Z,98.70
2018-07-25T03:19:56.337Z,98.80
2018-07-25T03:20:29.331Z,98.90
2018-07-25T03:21:02.483Z,98.90
2018-07-25T03:21:35.450Z,99.10
2018-07-25T03:22:08.492Z,99.50
2018-07-25T03:22:41.603Z,99.90
2018-07-25T03:23:14.609Z,99.90
2018-07-25T03:23:47.673Z,99.90
2018-07-25T03:24:20.710Z,99.90
2018-07-25T03:24:53.718Z,99.90
2018-07-25T03:25:26.720Z,99.90
2018-07-25T03:25:59.760Z,99.90
2018-07-25T03:26:32.759Z,99.90
2018-07-25T03:27:06.048Z,99.90
2018-07-25T03:27:39.056Z,99.90
2018-07-25T03:28:12.078Z,99.90
2018-07-25T03:28:45.376Z,99.90
2018-07-25T03:29:18.362Z,99.90
2018-07-25T03:29:51.354Z,99.90
2018-07-25T03:30:24.414Z,99.90
2018-07-25T03:30:57.964Z,99.90
2018-07-25T03:31:31.044Z,99.90
2018-07-25T03:32:04.088Z,99.90
2018-07-25T03:32:37.129Z,99.90
2018-07-25T03:33:10.132Z,99.90
2018-07-25T03:33:43.156Z,99.90
2018-07-25T03:34:16.170Z,99.90
2018-07-25T03:34:49.167Z,99.90
2018-07-25T03:35:22.212Z,99.90
2018-07-25T03:35:56.337Z,99.90
2018-07-25T03:36:29.407Z,99.90
2018-07-25T03:37:02.414Z,99.90
2018-07-25T03:37:35.696Z,99.90
2018-07-25T03:38:08.699Z,99.90
2018-07-25T03:38:41.717Z,99.90
2018-07-25T03:39:14.719Z,99.90
2018-07-25T03:39:47.706Z,99.90
2018-07-25T03:40:20.719Z,99.90
2018-07-25T03:40:53.723Z,99.90
2018-07-25T03:41:26.754Z,99.90
2018-07-25T03:41:59.763Z,99.90
2018-07-25T03:42:32.801Z,99.90
2018-07-25T03:43:05.829Z,99.90
2018-07-25T03:43:38.853Z,99.90
2018-07-25T03:44:11.899Z,99.90
2018-07-25T03:44:44.910Z,99.90
2018-07-25T03:45:17.978Z,99.90
2018-07-25T03:45:51.055Z,99.90
2018-07-25T03:46:24.053Z,99.90
2018-07-25T03:46:57.068Z,99.90
2018-07-25T03:47:30.071Z,99.90
2018-07-25T03:48:03.093Z,99.90
2018-07-25T03:48:36.099Z,99.90
2018-07-25T03:49:09.145Z,99.90
2018-07-25T03:51:11.701Z,99.90
2018-07-25T03:51:44.714Z,99.90
2018-07-25T03:52:17.748Z,99.90
2018-07-25T03:52:50.785Z,99.90
2018-07-25T03:53:23.795Z,99.90
2018-07-25T03:53:56.800Z,99.90
2018-07-25T03:54:30.212Z,99.90
2018-07-25T03:55:03.291Z,99.90
2018-07-25T03:55:36.310Z,99.90
2018-07-25T03:56:09.363Z,99.90
2018-07-25T03:56:42.405Z,99.90
2018-07-25T03:57:15.416Z,99.90
2018-07-25T03:57:48.449Z,99.90
2018-07-25T03:58:21.451Z,99.90
2018-07-25T03:58:54.492Z,99.90
2018-07-25T03:59:27.514Z,99.90
2018-07-25T04:00:00.518Z,99.90
2018-07-25T04:00:33.665Z,99.90
2018-07-25T04:01:06.733Z,99.90
2018-07-25T04:01:39.761Z,99.90
2018-07-25T04:02:12.829Z,99.90
2018-07-25T04:02:45.873Z,99.90
2018-07-25T04:03:18.914Z,99.90
2018-07-25T04:03:51.967Z,99.90
2018-07-25T04:04:25.012Z,99.90
2018-07-25T04:04:58.065Z,99.90
2018-07-25T04:05:31.148Z,99.70
2018-07-25T04:06:04.310Z,99.50
2018-07-25T04:06:37.324Z,99.20
2018-07-25T04:07:10.411Z,98.70
2018-07-25T04:07:43.503Z,98.10
2018-07-25T04:08:16.578Z,97.60
2018-07-25T04:08:49.590Z,97.10
2018-07-25T04:09:22.571Z,96.30
2018-07-25T04:09:55.557Z,96.10
2018-07-25T04:10:28.613Z,95.60
2018-07-25T04:11:01.629Z,95.20
2018-07-25T04:11:34.657Z,94.60
2018-07-25T04:12:07.677Z,93.90
2018-07-25T04:12:40.726Z,93.40
2018-07-25T04:13:13.759Z,92.90
2018-07-25T04:13:46.803Z,92.50
2018-07-25T04:14:19.931Z,91.90
2018-07-25T04:14:52.943Z,91.30
2018-07-25T04:15:25.977Z,90.60
2018-07-25T04:15:58.989Z,89.90
2018-07-25T04:16:31.993Z,89.30
2018-07-25T04:17:05.088Z,88.60
2018-07-25T04:17:44.339Z,88.00
2018-07-25T04:18:17.451Z,87.50
2018-07-25T04:18:50.469Z,86.90
2018-07-25T04:19:23.527Z,86.50
2018-07-25T04:19:56.595Z,85.90
2018-07-25T04:20:29.634Z,85.20
2018-07-25T04:21:02.686Z,84.70
2018-07-25T04:21:35.765Z,84.00
2018-07-25T04:22:08.764Z,83.50
2018-07-25T04:22:41.859Z,83.10
2018-07-25T04:23:14.901Z,82.50
2018-07-25T04:23:47.920Z,82.00
2018-07-25T04:24:20.945Z,81.50
2018-07-25T04:24:53.927Z,81.00
2018-07-25T04:25:26.929Z,80.80
2018-07-25T04:26:00.023Z,80.40
2018-07-25T04:26:33.362Z,80.10
2018-07-25T04:27:06.374Z,79.20
2018-07-25T04:27:42.366Z,78.90
2018-07-25T04:28:15.926Z,78.50
2018-07-25T04:28:48.952Z,77.90
2018-07-25T04:29:21.964Z,77.50
2018-07-25T04:29:54.964Z,77.10
2018-07-25T04:30:28.008Z,76.60
2018-07-25T04:31:01.002Z,76.10
2018-07-25T04:31:49.102Z,75.70
2018-07-25T04:32:22.112Z,75.50
2018-07-25T04:32:55.153Z,75.00
2018-07-25T04:33:28.163Z,74.60
2018-07-25T04:34:01.168Z,74.20
2018-07-25T04:34:34.150Z,73.90
2018-07-25T04:35:07.950Z,73.70
2018-07-25T04:35:40.972Z,73.20
2018-07-25T04:36:14.096Z,73.00
2018-07-25T04:36:47.098Z,73.00
2018-07-25T04:37:20.158Z,73.10
2018-07-25T04:37:53.194Z,72.80
2018-07-25T04:38:26.246Z,72.70
2018-07-25T04:38:59.260Z,72.60
2018-07-25T04:39:32.276Z,72.30
2018-07-25T04:40:06.124Z,72.10
2018-07-25T04:40:39.159Z,71.70
2018-07-25T04:41:12.187Z,71.00
2018-07-25T04:41:45.205Z,70.40
2018-07-25T04:42:18.204Z,69.40
2018-07-25T04:42:51.256Z,68.80
2018-07-25T04:43:24.269Z,68.30
2018-07-25T04:43:57.322Z,67.00
2018-07-25T04:44:30.349Z,65.50
2018-07-25T04:45:03.937Z,64.40
2018-07-25T04:45:36.938Z,63.50
2018-07-25T04:46:10.372Z,63.40
2018-07-25T04:46:43.341Z,63.80
2018-07-25T04:47:16.308Z,64.10
2018-07-25T04:47:49.291Z,63.80
2018-07-25T04:48:22.316Z,62.20
2018-07-25T04:48:55.295Z,61.80
2018-07-25T04:49:28.318Z,61.60
2018-07-25T04:50:01.324Z,61.00
2018-07-25T04:50:34.384Z,61.10
2018-07-25T04:51:07.655Z,60.90
2018-07-25T04:51:40.690Z,60.30
2018-07-25T04:52:14.206Z,59.00
2018-07-25T04:52:47.246Z,56.40
2018-07-25T04:53:20.292Z,55.30
2018-07-25T04:53:53.309Z,54.50
2018-07-25T04:54:26.310Z,53.10
2018-07-25T04:54:59.312Z,52.90
2018-07-25T04:55:32.324Z,53.00
2018-07-25T04:56:05.496Z,53.20
2018-07-25T04:56:38.464Z,53.00
2018-07-25T04:57:11.757Z,52.10
2018-07-25T04:57:44.832Z,52.30
2018-07-25T04:58:17.872Z,52.30
2018-07-25T04:58:50.906Z,51.80
2018-07-25T04:59:23.938Z,51.50
2018-07-25T04:59:56.945Z,50.50
2018-07-25T05:00:29.970Z,50.40
2018-07-25T05:01:03.000Z,50.00
2018-07-25T05:01:36.007Z,50.40
2018-07-25T05:02:09.223Z,49.80
2018-07-25T05:02:42.234Z,49.00
2018-07-25T05:03:15.238Z,48.10
2018-07-25T05:03:48.253Z,47.90
2018-07-25T05:04:21.262Z,47.60
2018-07-25T05:04:54.286Z,47.40
2018-07-25T05:05:27.314Z,46.90
2018-07-25T05:06:00.324Z,46.50
2018-07-25T05:06:33.341Z,45.80
2018-07-25T05:07:06.409Z,42.90
2018-07-25T05:07:39.458Z,42.30
2018-07-25T05:08:12.500Z,41.00
2018-07-25T05:08:45.562Z,41.60
2018-07-25T05:09:18.557Z,40.90
2018-07-25T05:09:51.551Z,39.10
2018-07-25T05:10:24.636Z,39.50
2018-07-25T05:10:57.820Z,38.90
2018-07-25T05:11:30.850Z,38.40
2018-07-25T05:12:03.925Z,37.60
2018-07-25T05:12:36.969Z,37.80
2018-07-25T05:13:09.952Z,37.40
2018-07-25T05:13:42.970Z,36.90
2018-07-25T05:14:15.972Z,36.20
2018-07-25T05:14:49.016Z,35.60
2018-07-25T05:15:22.032Z,34.90
2018-07-25T05:15:55.052Z,34.30
2018-07-25T05:16:28.084Z,33.30
2018-07-25T05:17:01.124Z,32.10
2018-07-25T05:17:34.112Z,30.60
2018-07-25T05:18:07.168Z,29.70
2018-07-25T05:18:40.152Z,29.30
2018-07-25T05:19:13.204Z,28.80
2018-07-25T05:19:46.234Z,28.50
2018-07-25T05:20:19.218Z,28.20
2018-07-25T05:20:52.256Z,27.80
2018-07-25T05:21:25.268Z,27.30
2018-07-25T05:21:58.300Z,27.00
2018-07-25T05:22:31.314Z,26.90
2018-07-25T05:23:04.423Z,26.50
2018-07-25T05:23:37.498Z,26.40
2018-07-25T05:24:10.488Z,26.50
2018-07-25T05:24:43.564Z,26.20
2018-07-25T05:25:16.581Z,25.80
2018-07-25T05:25:49.652Z,25.40
2018-07-25T05:26:22.702Z,24.30
2018-07-25T05:27:22.463Z,22.80
2018-07-25T05:27:55.530Z,21.80
2018-07-25T05:28:28.560Z,18.40
2018-07-25T05:29:01.588Z,17.00
2018-07-25T05:29:34.624Z,18.10
2018-07-25T05:30:07.748Z,16.00
2018-07-25T05:30:40.758Z,15.50
2018-07-25T05:31:13.817Z,16.90
2018-07-25T05:31:47.110Z,18.20
2018-07-25T05:32:20.131Z,20.40
2018-07-25T05:32:53.079Z,20.90
2018-07-25T05:33:26.100Z,21.40
2018-07-25T05:33:59.136Z,21.80
2018-07-25T05:34:32.196Z,19.50
2018-07-25T05:35:05.448Z,19.50
2018-07-25T05:35:38.454Z,19.70
2018-07-25T05:36:11.516Z,19.40
2018-07-25T05:36:44.651Z,19.00
2018-07-25T05:37:17.664Z,19.60
2018-07-25T05:37:50.676Z,19.10
2018-07-25T05:38:23.658Z,20.10
2018-07-25T05:38:56.667Z,21.60
2018-07-25T05:39:29.668Z,21.70
2018-07-25T05:40:03.028Z,20.70
2018-07-25T05:40:36.090Z,19.90
2018-07-25T05:41:09.112Z,21.60
2018-07-25T05:41:42.417Z,20.40
2018-07-25T05:42:15.426Z,20.60
2018-07-25T05:42:48.468Z,19.80
2018-07-25T05:43:21.504Z,21.10
2018-07-25T05:43:54.618Z,22.40
2018-07-25T05:44:27.584Z,22.00
2018-07-25T05:45:00.938Z,18.60
2018-07-25T05:45:34.004Z,19.60
2018-07-25T05:46:07.405Z,20.10
2018-07-25T05:46:40.426Z,19.00
2018-07-25T05:47:13.484Z,18.20
2018-07-25T05:47:46.500Z,18.40
2018-07-25T05:48:19.536Z,17.40
2018-07-25T05:48:52.538Z,18.30
2018-07-25T05:49:25.596Z,19.00
2018-07-25T05:49:58.554Z,17.80
2018-07-25T05:50:31.622Z,17.20
2018-07-25T05:51:04.664Z,15.90
2018-07-25T05:51:37.774Z,16.60
2018-07-25T05:52:10.823Z,15.70
2018-07-25T05:52:43.850Z,17.00
2018-07-25T05:53:16.834Z,18.30
2018-07-25T05:53:49.852Z,16.40
2018-07-25T05:54:22.916Z,15.80
2018-07-25T05:54:55.892Z,15.90
2018-07-25T05:55:28.912Z,17.20
2018-07-25T05:56:02.036Z,17.20
2018-07-25T05:56:35.106Z,15.40
2018-07-25T05:57:08.194Z,16.20
2018-07-25T05:57:41.283Z,17.20
2018-07-25T05:58:14.290Z,17.10
2018-07-25T05:58:47.347Z,16.60
2018-07-25T05:59:20.840Z,15.60
2018-07-25T05:59:53.908Z,13.10
2018-07-25T06:00:26.974Z,11.30
2018-07-25T06:00:59.999Z,8.20
2018-07-25T06:01:33.049Z,7.50
2018-07-25T06:02:06.173Z,5.00
2018-07-25T06:02:39.178Z,5.30
2018-07-25T06:03:12.320Z,8.00
2018-07-25T06:03:45.305Z,10.30
2018-07-25T06:04:18.338Z,10.80
2018-07-25T06:04:51.359Z,11.30
2018-07-25T06:05:24.411Z,11.30
2018-07-25T06:05:57.629Z,10.00
2018-07-25T06:06:30.607Z,10.20
2018-07-25T06:07:03.661Z,9.40
2018-07-25T06:07:37.011Z,8.80
2018-07-25T06:08:10.034Z,6.00
2018-07-25T06:08:43.046Z,5.00
2018-07-25T06:09:16.137Z,5.00
2018-07-25T06:09:49.176Z,5.00
2018-07-25T06:10:22.199Z,5.00
2018-07-25T06:10:55.255Z,5.00
2018-07-25T06:11:28.313Z,5.00
2018-07-25T06:12:01.333Z,5.00
2018-07-25T06:12:34.389Z,5.00
2018-07-25T06:13:07.453Z,5.00
2018-07-25T06:13:40.516Z,5.00
2018-07-25T06:14:13.591Z,5.00
2018-07-25T06:14:46.600Z,5.00
2018-07-25T06:15:19.634Z,5.00
2018-07-25T06:15:52.661Z,5.00
2018-07-25T06:16:25.682Z,5.00
2018-07-25T06:16:58.683Z,5.00
2018-07-25T06:17:31.665Z,5.00
2018-07-25T06:18:04.963Z,5.00
2018-07-25T06:18:38.009Z,5.00
2018-07-25T06:19:11.059Z,5.00
2018-07-25T06:19:44.081Z,5.00
2018-07-25T06:20:17.089Z,5.00
2018-07-25T06:20:50.081Z,5.00
2018-07-25T06:21:23.122Z,5.00
2018-07-25T06:21:56.231Z,5.00
2018-07-25T06:22:29.253Z,5.00
2018-07-25T06:23:02.266Z,5.00
2018-07-25T06:23:35.235Z,5.00
2018-07-25T06:24:08.259Z,5.00
2018-07-25T06:24:41.210Z,5.00
2018-07-25T06:25:14.241Z,5.00
2018-07-25T06:25:47.256Z,5.00
2018-07-25T06:26:20.275Z,5.00
2018-07-25T06:26:53.308Z,5.00
2018-07-25T06:27:26.393Z,5.00
2018-07-25T06:27:59.417Z,5.00
2018-07-25T06:28:32.455Z,5.00
2018-07-25T06:29:05.498Z,5.00
2018-07-25T06:29:38.500Z,5.00
2018-07-25T06:30:11.533Z,5.00
2018-07-25T06:30:44.526Z,5.00
2018-07-25T06:31:17.567Z,5.00
2018-07-25T06:31:50.586Z,5.00
2018-07-25T06:32:23.620Z,5.00
2018-07-25T06:32:56.663Z,5.00
2018-07-25T06:33:30.157Z,5.00
2018-07-25T06:34:03.215Z,5.00
2018-07-25T06:34:36.243Z,5.00
2018-07-25T06:35:09.235Z,5.00
2018-07-25T06:35:42.314Z,5.00
2018-07-25T06:36:15.419Z,5.00
2018-07-25T06:36:48.440Z,5.00
2018-07-25T06:37:21.458Z,5.00
2018-07-25T06:37:54.559Z,5.00
2018-07-25T06:38:27.702Z,5.00
2018-07-25T06:39:00.723Z,5.00
2018-07-25T06:39:33.751Z,5.00
2018-07-25T06:40:07.299Z,5.00
2018-07-25T06:40:40.364Z,5.00
2018-07-25T06:41:13.458Z,5.00
2018-07-25T06:41:46.445Z,5.00
2018-07-25T06:42:19.466Z,5.00
2018-07-25T06:42:53.362Z,5.00
2018-07-25T06:43:26.460Z,5.00
2018-07-25T06:43:59.433Z,5.00
2018-07-25T06:44:32.474Z,5.00
2018-07-25T06:45:05.939Z,5.00
2018-07-25T06:45:38.944Z,5.00
2018-07-25T06:46:12.217Z,5.00
2018-07-25T06:46:45.234Z,5.00
2018-07-25T06:47:18.280Z,5.00
2018-07-25T06:47:51.301Z,5.00
2018-07-25T06:48:24.334Z,5.00
2018-07-25T06:48:57.357Z,5.00
2018-07-25T06:49:30.372Z,5.00
2018-07-25T06:50:04.419Z,5.00
2018-07-25T06:50:37.483Z,5.00
2018-07-25T06:51:10.475Z,5.00
2018-07-25T06:51:43.434Z,5.00
2018-07-25T06:52:16.476Z,5.00
2018-07-25T06:52:49.483Z,5.00
2018-07-25T06:53:22.494Z,5.00
2018-07-25T06:53:55.594Z,5.00
2018-07-25T06:54:28.580Z,5.00
2018-07-25T06:55:01.596Z,5.00
2018-07-25T06:55:34.589Z,5.00
2018-07-25T06:56:07.862Z,5.00
2018-07-25T06:56:40.878Z,5.00
2018-07-25T06:57:13.958Z,5.00
2018-07-25T06:57:46.944Z,5.00
2018-07-25T06:58:19.958Z,5.00
2018-07-25T06:58:52.959Z,5.00
2018-07-25T06:59:25.986Z,5.00
2018-07-25T06:59:59.018Z,5.00
2018-07-25T07:00:31.979Z,5.00
2018-07-25T07:01:05.003Z,5.00
2018-07-25T07:01:37.972Z,5.00
2018-07-25T07:02:11.008Z,5.00
2018-07-25T07:02:44.026Z,5.00
2018-07-25T07:03:17.006Z,5.00
2018-07-25T07:03:50.290Z,5.00
2018-07-25T07:04:23.328Z,5.00
2018-07-25T07:04:56.553Z,5.00
2018-07-25T07:05:29.560Z,5.00
2018-07-25T07:06:02.568Z,5.00
2018-07-25T07:06:35.617Z,5.00
2018-07-25T07:07:08.613Z,5.00
2018-07-25T07:07:41.628Z,5.00
2018-07-25T07:08:14.621Z,5.00
2018-07-25T07:08:47.626Z,5.00
2018-07-25T07:09:20.642Z,5.00
2018-07-25T07:09:53.674Z,5.00
2018-07-25T07:10:26.697Z,5.00
2018-07-25T07:10:59.772Z,5.00
2018-07-25T07:11:32.812Z,5.00
2018-07-25T07:12:05.956Z,5.00
2018-07-25T07:12:39.029Z,5.00
2018-07-25T07:13:12.045Z,5.00
2018-07-25T07:13:45.109Z,5.00
2018-07-25T07:14:18.144Z,5.00
2018-07-25T07:14:51.224Z,5.00
2018-07-25T07:15:24.368Z,5.00
2018-07-25T07:15:57.409Z,5.00
2018-07-25T07:16:30.376Z,5.00
2018-07-25T07:17:03.450Z,5.00
2018-07-25T07:17:36.446Z,5.00
2018-07-25T07:18:09.492Z,5.00
2018-07-25T07:18:42.934Z,5.00
2018-07-25T07:19:15.936Z,5.00
2018-07-25T07:19:49.020Z,5.00